createdAt,value
2022-08-12T00:02:03.172Z,15.99
2022-08-12T00:04:51.472Z,16.09
2022-08-12T00:07:36.760Z,15.89
2022-08-12T00:10:22.647Z,15.78
2022-08-12T00:13:08.094Z,15.94
2022-08-12T00:15:54.832Z,15.93
2022-08-12T00:18:40.313Z,15.77
2022-08-12T00:21:25.673Z,15.93
2022-08-12T00:24:12.807Z,15.57
2022-08-12T00:26:59.994Z,15.75
2022-08-12T00:29:48.140Z,16.00
2022-08-12T00:32:35.938Z,16.01
2022-08-12T00:35:27.398Z,15.66
2022-08-12T00:38:23.187Z,15.68
2022-08-12T00:41:08.590Z,15.65
2022-08-12T00:43:36.532Z,15.72
2022-08-12T00:46:22.255Z,15.44
2022-08-12T00:48:49.958Z,15.53
2022-08-12T00:51:17.259Z,15.36
2022-08-12T00:53:44.327Z,15.42
2022-08-12T00:56:11.199Z,15.00
2022-08-12T00:58:39.719Z,15.20
2022-08-12T01:01:08.705Z,15.20
2022-08-12T01:03:56.614Z,15.27
2022-08-12T01:06:45.876Z,15.42
2022-08-12T01:09:37.033Z,15.62
2022-08-12T01:12:05.842Z,15.57
2022-08-12T01:14:32.850Z,15.37
2022-08-12T01:16:59.954Z,15.26
2022-08-12T01:19:26.808Z,15.06
2022-08-12T01:22:16.494Z,14.91
2022-08-12T01:24:44.021Z,15.01
2022-08-12T01:27:11.359Z,15.00
2022-08-12T01:29:43.959Z,15.33
2022-08-12T01:32:14.374Z,15.01
2022-08-12T01:35:14.656Z,15.14
2022-08-12T01:37:48.592Z,15.38
2022-08-12T01:40:31.436Z,15.25
2022-08-12T01:43:09.928Z,15.06
2022-08-12T01:45:59.501Z,15.30
2022-08-12T01:48:43.739Z,15.17
2022-08-12T01:52:15.045Z,14.97
2022-08-12T01:54:38.684Z,15.10
2022-08-12T01:57:57.620Z,15.09
2022-08-12T02:00:17.458Z,14.98
2022-08-12T02:03:02.069Z,15.12
2022-08-12T02:06:16.002Z,15.01
2022-08-12T02:09:06.000Z,14.85
2022-08-12T02:11:36.129Z,14.54
2022-08-12T02:14:13.373Z,14.71
2022-08-12T02:16:46.650Z,14.55
2022-08-12T02:19:22.818Z,14.69
2022-08-12T02:21:49.988Z,14.52
2022-08-12T02:24:20.851Z,14.53
2022-08-12T02:26:51.625Z,14.73
2022-08-12T02:29:20.274Z,14.77
2022-08-12T02:31:47.748Z,14.87
2022-08-12T02:34:16.636Z,14.69
2022-08-12T02:36:44.983Z,14.69
2022-08-12T02:39:16.404Z,14.65
2022-08-12T02:41:44.680Z,14.61
2022-08-12T02:44:15.228Z,14.48
2022-08-12T02:46:49.190Z,14.47
2022-08-12T02:49:22.949Z,14.30
2022-08-12T02:51:50.408Z,14.48
2022-08-12T02:54:17.490Z,14.56
2022-08-12T02:56:50.146Z,14.53
2022-08-12T02:59:20.039Z,14.57
2022-08-12T03:02:04.358Z,14.38
2022-08-12T03:04:40.072Z,14.26
2022-08-12T03:07:14.828Z,14.23
2022-08-12T03:10:05.536Z,14.07
2022-08-12T03:12:43.651Z,14.05
2022-08-12T03:15:23.010Z,14.26
2022-08-12T03:18:25.413Z,14.27
2022-08-12T03:20:43.845Z,13.96
2022-08-12T03:23:19.359Z,14.20
2022-08-12T03:25:57.237Z,14.05
2022-08-12T03:28:42.512Z,14.22
2022-08-12T03:31:10.240Z,14.21
2022-08-12T03:33:39.936Z,14.40
2022-08-12T03:36:08.887Z,14.38
2022-08-12T03:38:38.673Z,14.28
2022-08-12T03:41:28.683Z,14.36
2022-08-12T03:44:30.579Z,14.36
2022-08-12T03:47:22.490Z,14.38
2022-08-12T03:50:10.033Z,14.27
2022-08-12T03:52:55.456Z,14.22
2022-08-12T03:55:40.786Z,14.30
2022-08-12T03:58:27.389Z,14.11
2022-08-12T04:00:54.547Z,14.20
2022-08-12T04:03:39.833Z,14.15
2022-08-12T04:06:09.370Z,14.18
2022-08-12T04:08:36.981Z,14.14
2022-08-12T04:11:22.773Z,14.13
2022-08-12T04:13:51.511Z,14.05
2022-08-12T04:16:18.555Z,14.04
2022-08-12T04:18:45.646Z,14.01
2022-08-12T04:21:12.505Z,13.98
2022-08-12T04:23:47.784Z,14.01
2022-08-12T04:26:15.535Z,13.92
2022-08-12T04:28:43.265Z,13.83
2022-08-12T04:31:10.219Z,13.83
2022-08-12T04:33:37.350Z,13.78
2022-08-12T04:36:04.550Z,13.56
2022-08-12T04:38:32.074Z,13.37
2022-08-12T04:40:59.511Z,13.56
2022-08-12T04:44:00.566Z,13.50
2022-08-12T04:46:13.262Z,13.34
2022-08-12T04:48:40.021Z,13.58
2022-08-12T04:51:07.932Z,13.51
2022-08-12T04:53:34.897Z,13.58
2022-08-12T04:56:01.805Z,13.67
2022-08-12T04:58:30.551Z,13.78
2022-08-12T05:00:57.681Z,13.84
2022-08-12T05:03:26.748Z,13.90
2022-08-12T05:05:56.675Z,13.89
2022-08-12T05:08:24.497Z,13.92
2022-08-12T05:10:51.337Z,13.93
2022-08-12T05:13:23.206Z,14.04
2022-08-12T05:16:03.662Z,13.99
2022-08-12T05:18:30.916Z,14.15
2022-08-12T05:21:00.935Z,14.19
2022-08-12T05:23:28.273Z,14.20
2022-08-12T05:25:57.134Z,14.00
2022-08-12T05:28:27.144Z,13.73
2022-08-12T05:30:55.134Z,13.90
2022-08-12T05:33:23.649Z,14.09
2022-08-12T05:35:50.530Z,14.11
2022-08-12T05:38:37.204Z,13.81
2022-08-12T05:41:06.331Z,13.89
2022-08-12T05:43:34.247Z,13.87
2022-08-12T05:46:01.109Z,13.67
2022-08-12T05:48:28.432Z,14.11
2022-08-12T05:50:56.773Z,14.06
2022-08-12T05:53:24.114Z,14.46
2022-08-12T05:55:53.384Z,14.45
2022-08-12T05:58:21.231Z,14.30
2022-08-12T06:00:48.131Z,14.16
2022-08-12T06:03:19.325Z,14.31
2022-08-12T06:05:54.441Z,14.23
2022-08-12T06:08:24.932Z,14.24
2022-08-12T06:10:52.573Z,14.59
2022-08-12T06:13:28.425Z,14.58
2022-08-12T06:16:07.515Z,14.56
2022-08-12T06:18:34.807Z,14.89
2022-08-12T06:21:02.415Z,14.85
2022-08-12T06:23:42.286Z,14.95
2022-08-12T06:26:12.761Z,15.11
2022-08-12T06:28:40.257Z,15.25
2022-08-12T06:31:26.312Z,15.39
2022-08-12T06:34:00.739Z,15.18
2022-08-12T06:36:42.912Z,15.30
2022-08-12T06:39:14.679Z,15.06
2022-08-12T06:42:05.041Z,15.13
2022-08-12T06:44:49.673Z,15.41
2022-08-12T06:47:18.624Z,15.46
2022-08-12T06:49:45.462Z,15.74
2022-08-12T06:52:12.270Z,15.69
2022-08-12T06:54:39.454Z,15.86
2022-08-12T06:58:01.804Z,15.93
2022-08-12T06:59:54.678Z,16.22
2022-08-12T07:02:22.866Z,16.16
2022-08-12T07:04:50.131Z,16.14
2022-08-12T07:07:18.537Z,16.36
2022-08-12T07:10:04.339Z,16.68
2022-08-12T07:12:32.414Z,16.68
2022-08-12T07:15:01.815Z,16.71
2022-08-12T07:17:37.816Z,16.69
2022-08-12T07:20:29.605Z,16.98
2022-08-12T07:22:58.587Z,16.92
2022-08-12T07:28:33.784Z,17.14
2022-08-12T07:31:00.656Z,17.27
2022-08-12T07:33:29.244Z,17.16
2022-08-12T07:35:58.669Z,17.09
2022-08-12T07:38:30.721Z,17.14
2022-08-12T07:41:15.777Z,17.33
2022-08-12T07:43:51.612Z,17.31
2022-08-12T07:46:21.309Z,17.54
2022-08-12T07:48:51.417Z,17.45
2022-08-12T07:51:24.978Z,17.59
2022-08-12T07:54:00.008Z,17.59
2022-08-12T07:56:31.661Z,17.57
2022-08-12T07:59:01.291Z,17.71
2022-08-12T08:01:28.666Z,17.71
2022-08-12T08:04:18.723Z,17.78
2022-08-12T08:06:47.421Z,17.66
2022-08-12T08:09:16.352Z,17.70
2022-08-12T08:12:01.713Z,17.88
2022-08-12T08:14:29.230Z,17.92
2022-08-12T08:17:00.984Z,17.95
2022-08-12T08:19:29.347Z,18.09
2022-08-12T08:21:57.103Z,18.34
2022-08-12T08:24:25.970Z,18.36
2022-08-12T08:26:54.756Z,18.47
2022-08-12T08:29:22.733Z,18.37
2022-08-12T08:31:54.437Z,18.35
2022-08-12T08:34:49.273Z,18.29
2022-08-12T08:37:10.569Z,18.47
2022-08-12T08:39:42.475Z,18.49
2022-08-12T08:42:28.147Z,18.62
2022-08-12T08:44:58.916Z,18.63
2022-08-12T08:47:26.099Z,18.57
2022-08-12T08:49:52.997Z,18.66
2022-08-12T08:52:38.820Z,18.65
2022-08-12T08:55:09.504Z,18.78
2022-08-12T08:57:43.163Z,18.84
2022-08-12T09:00:20.063Z,18.66
2022-08-12T09:06:01.549Z,18.83
2022-08-12T09:08:26.935Z,18.63
2022-08-12T09:11:00.028Z,18.72
2022-08-12T09:14:11.039Z,18.86
2022-08-12T09:16:20.748Z,18.82
2022-08-12T09:21:54.638Z,18.84
2022-08-12T09:24:22.214Z,18.80
2022-08-12T09:26:49.549Z,18.93
2022-08-12T09:30:10.660Z,18.77
2022-08-12T09:32:10.029Z,18.74
2022-08-12T09:34:55.013Z,18.95
2022-08-12T09:37:26.804Z,19.09
2022-08-12T09:40:04.396Z,19.24
2022-08-12T09:43:17.073Z,19.16
2022-08-12T09:46:07.083Z,19.28
2022-08-12T09:48:36.706Z,19.16
2022-08-12T09:51:16.794Z,19.37
2022-08-12T09:54:08.494Z,19.36
2022-08-12T09:56:59.709Z,19.40
2022-08-12T10:00:15.620Z,19.29
2022-08-12T10:02:48.462Z,19.31
2022-08-12T10:05:01.820Z,19.41
2022-08-12T10:07:39.686Z,19.22
2022-08-12T10:10:22.552Z,19.22
2022-08-12T10:13:11.073Z,19.41
2022-08-12T10:16:02.480Z,19.47
2022-08-12T10:18:32.806Z,19.56
2022-08-12T10:21:09.519Z,19.74
2022-08-12T10:23:39.916Z,19.81
2022-08-12T10:26:37.889Z,19.87
2022-08-12T10:30:38.144Z,19.96
2022-08-12T10:32:45.501Z,20.03
2022-08-12T10:35:11.711Z,19.99
2022-08-12T10:38:34.202Z,20.07
2022-08-12T10:40:32.203Z,20.21
2022-08-12T10:43:18.827Z,19.86
2022-08-12T10:45:49.721Z,20.18
2022-08-12T10:48:27.169Z,20.32
2022-08-12T10:51:51.991Z,20.25
2022-08-12T10:53:52.665Z,20.40
2022-08-12T10:56:19.768Z,20.27
2022-08-12T10:58:48.628Z,20.51
2022-08-12T11:01:49.541Z,20.52
2022-08-12T11:04:26.953Z,20.33
2022-08-12T11:07:07.263Z,20.33
2022-08-12T11:09:55.893Z,20.50
2022-08-12T11:12:56.298Z,20.57
2022-08-12T11:15:21.005Z,20.36
2022-08-12T11:17:54.019Z,20.54
2022-08-12T11:20:24.495Z,20.70
2022-08-12T11:23:25.486Z,20.74
2022-08-12T11:25:57.926Z,20.82
2022-08-12T11:28:34.602Z,20.82
2022-08-12T11:31:05.415Z,21.04
2022-08-12T11:34:05.665Z,20.81
2022-08-12T11:36:21.889Z,20.80
2022-08-12T11:38:50.696Z,20.80
2022-08-12T11:41:27.955Z,20.63
2022-08-12T11:44:35.278Z,20.80
2022-08-12T11:46:51.308Z,20.82
2022-08-12T11:49:31.787Z,20.83
2022-08-12T11:52:00.929Z,20.74
2022-08-12T11:54:29.616Z,20.53
2022-08-12T11:56:59.371Z,20.78
2022-08-12T12:02:18.955Z,20.66
2022-08-12T12:04:52.534Z,20.57
2022-08-12T12:07:22.715Z,20.78
2022-08-12T12:10:01.497Z,20.68
2022-08-12T12:12:28.293Z,20.72
2022-08-12T12:14:55.838Z,20.50
2022-08-12T12:17:37.991Z,20.74
2022-08-12T12:20:09.299Z,20.96
2022-08-12T12:22:40.776Z,21.14
2022-08-12T12:25:12.921Z,21.06
2022-08-12T12:28:05.903Z,21.19
2022-08-12T12:30:38.665Z,21.45
2022-08-12T12:33:07.298Z,21.56
2022-08-12T12:36:18.158Z,21.29
2022-08-12T12:38:25.151Z,21.33
2022-08-12T12:40:52.541Z,21.25
2022-08-12T12:43:28.477Z,21.23
2022-08-12T12:46:04.111Z,21.42
2022-08-12T12:48:31.290Z,21.45
2022-08-12T12:51:48.411Z,21.27
2022-08-12T12:54:06.439Z,21.23
2022-08-12T12:56:35.194Z,21.15
2022-08-12T12:59:03.845Z,21.11
2022-08-12T13:01:37.776Z,21.42
2022-08-12T13:04:12.115Z,21.43
2022-08-12T13:06:42.034Z,21.26
2022-08-12T13:09:13.241Z,21.54
2022-08-12T13:11:41.390Z,22.37
2022-08-12T13:14:27.913Z,23.13
2022-08-12T13:16:56.443Z,23.10
2022-08-12T13:19:36.034Z,23.21
2022-08-12T13:22:19.242Z,23.10
2022-08-12T13:24:55.569Z,23.54
2022-08-12T13:27:35.270Z,23.00
2022-08-12T13:30:11.375Z,22.65
2022-08-12T13:32:57.727Z,22.65
2022-08-12T13:35:33.317Z,23.04
2022-08-12T13:38:34.491Z,23.55
2022-08-12T13:41:03.496Z,23.79
2022-08-12T13:43:40.973Z,24.35
2022-08-12T13:46:12.375Z,24.76
2022-08-12T13:48:45.138Z,24.64
2022-08-12T13:51:13.991Z,24.30
2022-08-12T13:53:58.947Z,24.45
2022-08-12T13:56:31.510Z,24.61
2022-08-12T13:59:08.471Z,23.92
2022-08-12T14:01:40.726Z,24.92
2022-08-12T14:04:11.408Z,24.19
2022-08-12T14:06:40.288Z,23.90
2022-08-12T14:09:15.248Z,23.58
2022-08-12T14:11:51.222Z,22.82
2022-08-12T14:14:27.432Z,22.62
2022-08-12T14:16:54.277Z,22.86
2022-08-12T14:19:22.905Z,22.69
2022-08-12T14:22:00.883Z,21.49
2022-08-12T14:24:35.408Z,22.30
2022-08-12T14:27:09.332Z,21.61
2022-08-12T14:30:04.803Z,21.48
2022-08-12T14:32:35.344Z,21.44
2022-08-12T14:35:09.210Z,21.33
2022-08-12T14:37:57.745Z,21.81
2022-08-12T14:40:29.681Z,21.62
2022-08-12T14:42:58.267Z,21.43
2022-08-12T14:45:44.336Z,21.71
2022-08-12T14:48:14.847Z,20.96
2022-08-12T14:51:03.264Z,20.81
2022-08-12T14:59:57.180Z,20.52
2022-08-12T15:02:25.962Z,20.50
2022-08-12T15:04:56.123Z,20.50
2022-08-12T15:07:33.337Z,20.58
2022-08-12T15:10:10.169Z,20.55
2022-08-12T15:12:40.644Z,20.50
2022-08-12T15:15:10.239Z,20.30
2022-08-12T15:17:38.696Z,20.42
2022-08-12T15:20:32.010Z,20.26
2022-08-12T15:22:55.685Z,20.30
2022-08-12T15:25:22.715Z,20.23
2022-08-12T15:28:05.709Z,20.18
2022-08-12T15:30:35.322Z,20.38
2022-08-12T15:33:12.948Z,20.53
2022-08-12T15:35:50.320Z,20.22
2022-08-12T15:38:25.231Z,19.87
2022-08-12T15:40:53.672Z,20.01
2022-08-12T15:44:16.901Z,20.18
2022-08-12T15:46:15.935Z,20.36
2022-08-12T15:48:47.491Z,19.92
2022-08-12T15:51:57.646Z,19.60
2022-08-12T15:54:34.368Z,19.61
2022-08-12T15:57:06.040Z,19.25
2022-08-12T16:00:02.314Z,19.27
2022-08-12T16:02:26.840Z,19.12
2022-08-12T16:04:54.281Z,18.94
2022-08-12T16:07:29.580Z,19.15
2022-08-12T16:10:05.466Z,19.55
2022-08-12T16:12:43.197Z,19.25
2022-08-12T16:15:13.437Z,18.96
2022-08-12T16:18:18.175Z,18.75
2022-08-12T16:20:33.437Z,19.16
2022-08-12T16:23:04.379Z,19.10
2022-08-12T16:26:06.258Z,18.39
2022-08-12T16:28:37.616Z,18.78
2022-08-12T16:31:05.637Z,18.71
2022-08-12T16:33:59.107Z,18.82
2022-08-12T16:36:25.569Z,18.69
2022-08-12T16:38:52.720Z,18.99
2022-08-12T16:41:19.548Z,18.55
2022-08-12T16:43:46.812Z,18.16
2022-08-12T16:46:32.264Z,18.79
2022-08-12T16:49:04.292Z,18.84
2022-08-12T16:51:45.975Z,18.99
2022-08-12T16:54:19.209Z,18.60
2022-08-12T16:56:54.840Z,18.56
2022-08-12T16:59:30.918Z,18.57
2022-08-12T17:02:18.041Z,18.67
2022-08-12T17:04:59.865Z,18.76
2022-08-12T17:07:36.472Z,18.66
2022-08-12T17:10:08.295Z,18.87
2022-08-12T17:12:37.666Z,19.00
2022-08-12T17:15:21.434Z,18.53
2022-08-12T17:18:42.262Z,18.14
2022-08-12T17:20:49.421Z,18.31
2022-08-12T17:23:19.120Z,18.60
2022-08-12T17:25:53.071Z,18.44
2022-08-12T17:28:22.692Z,18.31
2022-08-12T17:30:56.466Z,18.37
2022-08-12T17:33:27.076Z,18.16
2022-08-12T17:35:58.559Z,17.88
2022-08-12T17:38:25.283Z,18.07
2022-08-12T17:40:54.546Z,18.12
2022-08-12T17:43:52.068Z,17.95
2022-08-12T17:46:12.892Z,18.17
2022-08-12T17:48:54.962Z,17.84
2022-08-12T17:51:24.531Z,17.72
2022-08-12T17:54:11.279Z,17.69
2022-08-12T17:56:43.188Z,17.69
2022-08-12T17:59:12.310Z,17.55
2022-08-12T18:01:45.640Z,17.80
2022-08-12T18:04:22.814Z,17.63
2022-08-12T18:07:02.482Z,17.50
2022-08-12T18:09:36.479Z,17.50
2022-08-12T18:12:24.341Z,17.36
2022-08-12T18:15:03.040Z,17.43
2022-08-12T18:17:39.244Z,17.40
2022-08-12T18:20:15.386Z,17.45
2022-08-12T18:22:43.519Z,17.13
2022-08-12T18:25:37.842Z,17.38
2022-08-12T18:28:15.759Z,17.38
2022-08-12T18:30:45.412Z,17.19
2022-08-12T18:33:23.856Z,17.31
2022-08-12T18:35:53.819Z,17.13
2022-08-12T18:38:24.738Z,17.19
2022-08-12T18:41:17.509Z,17.37
2022-08-12T18:44:06.090Z,17.11
2022-08-12T18:46:48.875Z,16.95
2022-08-12T18:49:31.949Z,17.12
2022-08-12T18:52:05.428Z,17.41
2022-08-12T18:54:41.516Z,16.97
2022-08-12T18:57:45.823Z,17.16
2022-08-12T19:00:06.329Z,17.03
2022-08-12T19:02:39.871Z,16.93
2022-08-12T19:05:10.956Z,16.89
2022-08-12T19:08:00.304Z,17.00
2022-08-12T19:10:31.172Z,16.92
2022-08-12T19:13:23.114Z,17.01
2022-08-12T19:15:53.615Z,16.89
2022-08-12T19:18:21.964Z,16.90
2022-08-12T19:20:50.644Z,17.09
2022-08-12T19:23:20.977Z,16.84
2022-08-12T19:25:59.268Z,16.85
2022-08-12T19:28:35.728Z,16.97
2022-08-12T19:31:56.827Z,16.63
2022-08-12T19:35:13.868Z,16.75
2022-08-12T19:37:26.808Z,16.70
2022-08-12T19:40:09.127Z,16.60
2022-08-12T19:42:57.810Z,16.59
2022-08-12T19:45:41.835Z,16.59
2022-08-12T19:48:16.772Z,16.66
2022-08-12T19:50:50.325Z,16.59
2022-08-12T19:53:23.024Z,16.62
2022-08-12T19:55:54.188Z,16.64
2022-08-12T19:58:22.605Z,16.70
2022-08-12T20:00:53.529Z,16.39
2022-08-12T20:03:40.006Z,16.39
2022-08-12T20:06:16.045Z,16.42
2022-08-12T20:08:55.684Z,16.52
2022-08-12T20:12:14.048Z,16.36
2022-08-12T20:14:19.563Z,16.38
2022-08-12T20:16:54.286Z,16.41
2022-08-12T20:19:53.318Z,16.41
2022-08-12T20:22:16.777Z,16.44
2022-08-12T20:24:55.225Z,16.43
2022-08-12T20:27:29.691Z,16.33
2022-08-12T20:30:13.659Z,16.37
2022-08-12T20:32:54.097Z,16.32
2022-08-12T20:35:24.782Z,16.41
2022-08-12T20:38:06.290Z,16.34
2022-08-12T20:40:48.051Z,16.50
2022-08-12T20:43:15.704Z,16.47
2022-08-12T20:45:51.138Z,16.40
2022-08-12T20:48:25.544Z,16.48
2022-08-12T20:50:55.659Z,16.48
2022-08-12T20:53:33.039Z,16.38
2022-08-12T20:56:38.957Z,16.25
2022-08-12T20:59:11.668Z,16.43
2022-08-12T21:01:48.655Z,16.30
2022-08-12T21:04:35.827Z,16.36
2022-08-12T21:07:08.959Z,16.28
2022-08-12T21:09:44.468Z,16.27
2022-08-12T21:12:28.552Z,16.29
2022-08-12T21:15:23.304Z,16.33
2022-08-12T21:18:11.299Z,16.26
2022-08-12T21:20:50.860Z,16.24
2022-08-12T21:23:21.213Z,16.25
2022-08-12T21:25:49.203Z,16.14
2022-08-12T21:28:20.653Z,16.28
2022-08-12T21:31:10.664Z,16.22
2022-08-12T21:33:58.548Z,16.27
2022-08-12T21:36:32.223Z,16.23
2022-08-12T21:39:20.701Z,16.33
2022-08-12T21:41:52.278Z,16.36
2022-08-12T21:44:23.916Z,16.12
2022-08-12T21:47:21.110Z,16.29
2022-08-12T21:50:04.151Z,16.18
2022-08-12T21:52:41.141Z,16.37
2022-08-12T21:55:17.935Z,16.47
2022-08-12T21:57:54.328Z,16.43
2022-08-12T22:00:32.567Z,16.32
2022-08-12T22:04:02.162Z,16.16
2022-08-12T22:06:30.566Z,16.44
2022-08-12T22:09:15.603Z,16.35
2022-08-12T22:11:56.362Z,16.37
2022-08-12T22:14:30.059Z,16.31
2022-08-12T22:16:58.588Z,16.34
2022-08-12T22:19:27.717Z,16.34
2022-08-12T22:21:55.876Z,16.30
2022-08-12T22:24:27.736Z,16.29
2022-08-12T22:27:18.126Z,16.44
2022-08-12T22:30:16.413Z,16.19
2022-08-12T22:32:51.672Z,16.24
2022-08-12T22:35:55.346Z,16.30
2022-08-12T22:38:26.646Z,16.22
2022-08-12T22:41:02.063Z,16.15
2022-08-12T22:43:58.973Z,16.09
2022-08-12T22:46:52.942Z,16.29
2022-08-12T22:49:48.804Z,16.31
2022-08-12T22:52:14.144Z,16.07
2022-08-12T22:55:00.040Z,16.17
2022-08-12T22:57:53.636Z,16.26
2022-08-12T23:00:24.131Z,16.39
2022-08-12T23:03:00.467Z,16.27
2022-08-12T23:05:36.838Z,16.40
2022-08-12T23:08:30.013Z,16.28
2022-08-12T23:11:00.400Z,16.20
2022-08-12T23:13:45.830Z,16.34
2022-08-12T23:16:28.229Z,16.28
2022-08-12T23:19:10.467Z,16.40
2022-08-12T23:22:04.486Z,16.31
2022-08-12T23:24:38.785Z,16.30
2022-08-12T23:27:44.442Z,16.19
2022-08-12T23:30:19.510Z,16.28
2022-08-12T23:32:54.593Z,16.36
2022-08-12T23:35:45.595Z,16.34
2022-08-12T23:38:19.010Z,16.04
2022-08-12T23:41:00.823Z,16.28
2022-08-12T23:43:39.750Z,16.21
2022-08-12T23:46:18.551Z,16.07
2022-08-12T23:48:48.046Z,15.71
2022-08-12T23:51:24.573Z,15.90
2022-08-12T23:54:02.586Z,15.98
2022-08-12T23:56:33.693Z,16.00
2022-08-12T23:59:10.330Z,16.11
